Time;durP1;ratioP1;P1;durP2;ratioP2;P2;SDS_P1;SDS_P2;PMS_P1;PMS_P2;Temp;Humidity;BMP_temperature;BMP_pressure;BME280_temperature;BME280_humidity;BME280_pressure;Samples;Min_cycle;Max_cycle;Signal;HPM_P1;HPM_P2
2022/06/02 00:00:09;;;;;;;11.65;3.45;;;;;;;15.70;100.00;95135.22;5074003;28;20584;-69
2022/06/02 00:03:25;;;;;;;7.25;3.65;;;;;;;15.49;100.00;95135.09;5083179;28;20122;-69
2022/06/02 00:06:00;;;;;;;8.20;3.75;;;;;;;15.39;100.00;95137.63;5074540;28;20044;-69
2022/06/02 00:08:53;;;;;;;9.18;4.25;;;;;;;15.31;100.00;95132.88;5076402;28;20050;-69
2022/06/02 00:11:37;;;;;;;8.00;3.78;;;;;;;15.27;100.00;95137.06;5076094;28;20238;-68
2022/06/02 00:14:13;;;;;;;7.93;4.20;;;;;;;15.27;100.00;95137.06;5076816;28;20048;-69
2022/06/02 00:17:06;;;;;;;5.93;3.22;;;;;;;15.24;100.00;95133.09;5073051;28;20037;-68
2022/06/02 00:19:46;;;;;;;4.85;3.42;;;;;;;15.21;100.00;95128.34;5071990;28;20040;-69
2022/06/02 00:22:28;;;;;;;6.38;3.50;;;;;;;15.18;100.00;95122.81;5060093;28;20055;-68
2022/06/02 00:25:21;;;;;;;10.00;4.13;;;;;;;15.17;100.00;95122.03;5064364;28;20048;-68
2022/06/02 00:28:11;;;;;;;9.57;4.05;;;;;;;15.18;100.00;95134.13;5062207;28;20481;-68
2022/06/02 00:30:44;;;;;;;6.90;4.45;;;;;;;15.14;100.00;95121.75;5048158;28;20059;-69
2022/06/02 00:33:25;;;;;;;6.47;4.30;;;;;;;15.22;100.00;95134.41;5064541;28;20060;-69
2022/06/02 00:36:00;;;;;;;7.05;4.90;;;;;;;15.19;100.00;95135.69;5043678;28;20048;-68
2022/06/02 00:38:36;;;;;;;6.88;3.70;;;;;;;15.12;100.00;95135.09;5066719;28;20437;-69
2022/06/02 00:41:36;;;;;;;11.45;4.47;;;;;;;15.10;100.00;95132.72;5062045;28;20121;-68
2022/06/02 00:44:37;;;;;;;18.98;4.35;;;;;;;15.05;100.00;95135.34;5067623;28;20048;-68
2022/06/02 00:47:26;;;;;;;9.43;4.00;;;;;;;15.01;100.00;95134.22;5062397;28;20059;-68
2022/06/02 00:50:04;;;;;;;5.53;3.15;;;;;;;14.94;100.00;95130.25;5061973;28;20048;-69
2022/06/02 00:52:48;;;;;;;6.85;4.38;;;;;;;14.93;100.00;95124.22;5061335;28;20068;-68
2022/06/02 00:58:36;;;;;;;8.05;3.85;;;;;;;14.86;100.00;95134.13;5061280;28;20024;-68
2022/06/02 01:01:12;;;;;;;7.07;3.92;;;;;;;14.81;100.00;95128.84;5065320;28;20044;-68
2022/06/02 01:03:43;;;;;;;6.85;4.28;;;;;;;14.83;100.00;95127.53;5062111;28;20155;-68
2022/06/02 01:06:19;;;;;;;5.90;4.03;;;;;;;14.88;100.00;95130.19;5065507;28;21349;-68
2022/06/02 01:09:08;;;;;;;6.35;4.20;;;;;;;14.84;100.00;95128.34;5068635;28;20044;-69
2022/06/02 01:12:05;;;;;;;7.70;3.72;;;;;;;14.82;100.00;95127.78;5067846;28;21441;-69
2022/06/02 01:15:14;;;;;;;7.80;4.43;;;;;;;14.84;100.00;95128.34;5058456;28;20127;-68
2022/06/02 01:18:05;;;;;;;5.55;3.70;;;;;;;14.75;100.00;95124.56;5054073;28;20052;-69
2022/06/02 01:20:52;;;;;;;12.93;4.18;;;;;;;14.77;100.00;95127.75;5066456;28;20434;-68
2022/06/02 01:23:21;;;;;;;7.55;3.85;;;;;;;14.77;100.00;95127.75;5061113;28;20044;-68
2022/06/02 01:26:17;;;;;;;8.52;4.40;;;;;;;14.77;100.00;95133.00;5063984;28;20057;-68
2022/06/02 01:28:59;;;;;;;12.40;5.10;;;;;;;14.71;100.00;95135.59;5018265;28;20048;-68
2022/06/02 01:32:01;;;;;;;7.03;4.63;;;;;;;14.64;100.00;95124.50;5060883;28;20052;-68
2022/06/02 01:34:34;;;;;;;9.38;4.00;;;;;;;14.55;100.00;95125.97;5066106;28;21351;-68
2022/06/02 01:37:03;;;;;;;7.00;3.60;;;;;;;14.53;100.00;95133.28;5064600;28;20313;-68
2022/06/02 01:39:33;;;;;;;6.35;4.28;;;;;;;14.47;100.00;95126.41;5059197;28;20549;-68
2022/06/02 01:42:26;;;;;;;10.93;4.68;;;;;;;14.36;100.00;95129.97;5059335;28;20115;-68
2022/06/02 01:45:11;;;;;;;9.65;4.00;;;;;;;14.38;100.00;95128.69;5059893;28;20044;-68
2022/06/02 01:47:42;;;;;;;9.65;4.05;;;;;;;14.28;100.00;95121.53;5062406;28;20048;-69
2022/06/02 01:50:33;;;;;;;12.70;4.15;;;;;;;14.25;100.00;95127.25;5063078;28;20040;-68
2022/06/02 01:53:08;;;;;;;6.53;4.10;;;;;;;14.25;100.00;95132.47;5056510;28;20056;-68
2022/06/02 01:55:35;;;;;;;9.98;4.90;;;;;;;14.27;100.00;95130.41;5063981;28;21337;-69
2022/06/02 01:58:05;;;;;;;6.80;3.90;;;;;;;14.29;100.00;95130.94;5064847;28;20113;-69
2022/06/02 02:00:34;;;;;;;10.23;4.55;;;;;;;14.26;100.00;95128.84;5061717;28;20048;-68
2022/06/02 02:03:30;;;;;;;9.23;4.22;;;;;;;14.21;100.00;95128.78;5059771;28;20044;-68
2022/06/02 02:06:25;;;;;;;8.95;4.18;;;;;;;14.18;100.00;95131.88;5061646;28;20051;-68
2022/06/02 02:09:18;;;;;;;5.95;4.13;;;;;;;14.18;100.00;95131.09;5059740;28;20063;-68
2022/06/02 02:11:54;;;;;;;9.73;4.50;;;;;;;14.14;100.00;95125.56;5056254;28;20044;-68
2022/06/02 02:14:41;;;;;;;5.88;4.47;;;;;;;14.08;100.00;95122.09;5057536;28;20055;-68
2022/06/02 02:17:45;;;;;;;12.88;4.72;;;;;;;13.95;100.00;95115.41;5060299;28;20049;-68
2022/06/02 02:20:37;;;;;;;8.35;4.30;;;;;;;13.90;100.00;95117.97;5060716;28;20591;-69
2022/06/02 02:23:21;;;;;;;11.27;4.95;;;;;;;13.87;100.00;95113.22;5038942;28;20135;-68
2022/06/02 02:25:48;;;;;;;;;;;;;;;13.85;100.00;95112.66;5061094;28;20044;-68
2022/06/02 02:28:47;;;;;;;19.52;5.80;;;;;;;13.78;100.00;95112.06;5056815;28;19932;-68
2022/06/02 02:31:33;;;;;;;7.90;4.95;;;;;;;13.76;100.00;95103.66;5065150;28;20545;-68
2022/06/02 02:34:06;;;;;;;8.07;5.03;;;;;;;13.79;100.00;95113.63;5057381;28;20043;-68
2022/06/02 02:36:47;;;;;;;8.15;5.05;;;;;;;13.67;100.00;95095.44;5065573;28;20041;-69
2022/06/02 02:39:55;;;;;;;9.30;4.82;;;;;;;13.72;100.00;95113.84;5058608;28;20126;-68
2022/06/02 02:42:28;;;;;;;6.93;4.53;;;;;;;13.68;100.00;95115.31;5046146;28;20056;-68
2022/06/02 02:45:09;;;;;;;11.23;5.00;;;;;;;13.70;100.00;95113.28;5057840;28;20036;-68
2022/06/02 02:47:48;;;;;;;8.25;4.85;;;;;;;13.73;100.00;95114.63;5063782;28;20036;-68
2022/06/02 02:50:33;;;;;;;6.53;4.60;;;;;;;13.78;100.00;95117.28;5056740;28;20048;-68
2022/06/02 02:53:08;;;;;;;;;;;;;;;13.81;100.00;95111.59;5062558;28;20055;-68
2022/06/02 02:55:45;;;;;;;9.48;5.28;;;;;;;13.72;100.00;95099.94;5059518;28;19932;-68
2022/06/02 02:58:41;;;;;;;8.02;4.68;;;;;;;13.82;100.00;95113.16;5065306;28;20045;-68
2022/06/02 03:01:22;;;;;;;7.90;5.13;;;;;;;13.80;100.00;95104.75;5054138;28;20045;-68
2022/06/02 03:04:08;;;;;;;10.35;4.60;;;;;;;13.92;100.00;95118.50;5037232;28;20040;-68
2022/06/02 03:06:43;;;;;;;6.88;4.65;;;;;;;13.91;100.00;95122.16;5042620;28;20110;-68
2022/06/02 03:09:14;;;;;;;10.23;5.05;;;;;;;13.94;100.00;95126.13;5055265;28;20049;-68
2022/06/02 03:12:16;;;;;;;13.55;5.03;;;;;;;14.01;100.00;95131.16;5059750;28;20525;-68
2022/06/02 03:15:10;;;;;;;7.82;4.45;;;;;;;14.10;100.00;95140.19;5062883;28;20050;-68
2022/06/02 03:17:43;;;;;;;9.50;5.45;;;;;;;14.14;100.00;95126.34;5059821;28;20037;-68
2022/06/02 03:20:17;;;;;;;11.98;5.40;;;;;;;14.14;100.00;95125.56;5060318;28;20554;-68
2022/06/02 03:22:57;;;;;;;9.45;4.95;;;;;;;14.20;100.00;95129.03;5061677;28;20052;-68
2022/06/02 03:25:36;;;;;;;10.25;5.85;;;;;;;14.31;100.00;95135.94;5043412;28;20828;-68
2022/06/02 03:28:24;;;;;;;6.97;4.93;;;;;;;14.44;100.00;95140.00;5057384;28;20059;-68
2022/06/02 03:31:06;;;;;;;11.70;5.18;;;;;;;14.47;100.00;95139.50;5063057;28;20052;-68
2022/06/02 03:33:55;;;;;;;8.98;4.88;;;;;;;14.56;100.00;95138.03;5056296;28;20121;-69
2022/06/02 03:36:39;;;;;;;10.63;5.00;;;;;;;14.67;100.00;95134.47;5060453;28;20044;-69
2022/06/02 03:39:27;;;;;;;6.65;5.20;;;;;;;14.71;100.00;95140.81;5056129;28;20044;-68
2022/06/02 03:41:58;;;;;;;10.20;5.60;;;;;;;14.75;100.00;95140.31;5059339;28;20114;-68
2022/06/02 03:45:00;;;;;;;12.32;5.78;;;;;;;14.81;100.00;95144.56;5056972;28;20113;-68
2022/06/02 03:47:55;;;;;;;8.48;5.50;;;;;;;14.88;100.00;95139.91;5057373;28;20041;-68
2022/06/02 03:50:52;;;;;;;11.85;5.78;;;;;;;14.95;100.00;95150.97;5056161;28;20040;-68
2022/06/02 03:53:27;;;;;;;7.70;4.63;;;;;;;15.03;100.00;95150.50;5056363;28;20626;-68
2022/06/02 03:56:29;;;;;;;13.27;6.97;;;;;;;15.09;100.00;95146.91;5062602;28;20044;-68
2022/06/02 03:59:24;;;;;;;6.50;5.00;;;;;;;15.18;100.00;95151.66;5068696;28;20091;-68
2022/06/02 04:02:05;;;;;;;10.05;5.20;;;;;;;15.19;100.00;95151.41;5067582;28;20044;-67
2022/06/02 04:04:46;;;;;;;7.55;5.35;;;;;;;15.28;100.00;95144.66;5063118;28;20228;-67
2022/06/02 04:07:46;;;;;;;10.85;5.45;;;;;;;15.33;100.00;95141.28;5051147;28;20052;-75
2022/06/02 04:10:37;;;;;;;8.75;5.25;;;;;;;15.44;100.00;95156.03;5057874;28;20590;-73
2022/06/02 04:16:23;;;;;;;9.57;6.05;;;;;;;15.58;100.00;95147.75;5068355;28;20044;-68
2022/06/02 04:18:50;;;;;;;13.27;6.75;;;;;;;15.52;100.00;95148.75;5069164;28;20040;-68
2022/06/02 04:21:45;;;;;;;8.02;5.75;;;;;;;15.59;100.00;95141.44;5048606;28;20040;-68
2022/06/02 04:24:33;;;;;;;14.88;6.15;;;;;;;15.65;100.00;95137.81;5068746;28;20048;-67
2022/06/02 04:27:32;;;;;;;10.55;6.18;;;;;;;15.83;100.00;95145.25;5064762;28;20043;-68
2022/06/02 04:30:20;;;;;;;10.85;5.95;;;;;;;15.97;100.00;95136.91;5063554;28;20075;-68
2022/06/02 04:33:09;;;;;;;9.73;5.97;;;;;;;16.12;100.00;95136.19;5057791;28;20036;-68
2022/06/02 04:36:01;;;;;;;9.75;6.57;;;;;;;16.26;100.00;95137.28;5057342;28;20049;-68
2022/06/02 04:38:38;;;;;;;19.10;6.07;;;;;;;16.35;100.00;95145.44;5043844;28;20052;-67
2022/06/02 04:41:30;;;;;;;8.80;5.82;;;;;;;16.45;100.00;95145.47;5058576;28;20036;-67
2022/06/02 04:44:24;;;;;;;7.32;5.30;;;;;;;16.56;100.00;95141.78;5077739;28;20048;-68
2022/06/02 04:47:12;;;;;;;13.73;5.70;;;;;;;16.73;100.00;95151.31;5015196;28;20041;-67
2022/06/02 04:50:17;;;;;;;13.65;6.05;;;;;;;16.85;100.00;95143.97;5044099;28;20155;-68
2022/06/02 04:53:04;;;;;;;8.48;6.13;;;;;;;16.88;100.00;95138.19;5058657;28;20036;-67
2022/06/02 04:56:01;;;;;;;11.35;5.90;;;;;;;17.09;100.00;95148.72;5061194;28;20044;-67
2022/06/02 04:58:47;;;;;;;8.07;5.80;;;;;;;17.23;100.00;95149.75;5056178;28;20054;-68
2022/06/02 05:01:32;;;;;;;8.68;5.80;;;;;;;17.39;100.00;95148.69;5060951;28;20117;-67
2022/06/02 05:04:37;;;;;;;9.77;5.45;;;;;;;17.48;100.00;95146.28;5057980;28;20051;-68
2022/06/02 05:07:25;;;;;;;12.67;5.90;;;;;;;17.54;100.00;95149.72;5064238;28;20045;-67
2022/06/02 05:10:11;;;;;;;9.85;5.72;;;;;;;17.64;100.00;95149.69;5058812;28;21413;-67
2022/06/02 05:13:04;;;;;;;11.18;6.35;;;;;;;17.77;100.00;95164.13;5060117;28;20037;-67
2022/06/02 05:15:52;;;;;;;10.77;5.75;;;;;;;17.89;100.00;95167.28;5061625;28;20094;-68
2022/06/02 05:18:31;;;;;;;9.10;5.80;;;;;;;18.12;100.00;95163.25;5059686;28;20102;-67
2022/06/02 05:21:16;;;;;;;8.98;5.30;;;;;;;18.26;100.00;95165.31;5057582;28;20048;-67
2022/06/02 05:23:57;;;;;;;9.75;5.60;;;;;;;18.31;100.00;95167.91;5059293;28;20056;-67
2022/06/02 05:27:06;;;;;;;8.63;6.05;;;;;;;18.36;100.00;95175.03;5059322;28;20048;-67
2022/06/02 05:29:51;;;;;;;9.85;6.40;;;;;;;18.47;100.00;95166.00;5049993;28;20044;-67
2022/06/02 05:32:47;;;;;;;11.38;6.30;;;;;;;18.61;100.00;95172.25;5061453;28;20044;-67
2022/06/02 05:35:49;;;;;;;13.82;6.70;;;;;;;18.70;100.00;95175.88;5058189;28;20073;-68
2022/06/02 05:38:27;;;;;;;13.98;5.70;;;;;;;18.69;100.00;95178.78;5013619;28;20049;-67
2022/06/02 05:41:00;;;;;;;8.52;5.57;;;;;;;18.73;100.00;95177.19;5056099;28;20123;-67
2022/06/02 05:43:45;;;;;;;9.40;6.18;;;;;;;18.93;100.00;95172.88;5059641;28;20708;-67
2022/06/02 05:46:29;;;;;;;8.82;6.10;;;;;;;18.94;100.00;95169.94;5056603;28;20048;-67
2022/06/02 05:48:58;;;;;;;8.23;5.85;;;;;;;18.86;100.00;95173.97;5059050;28;20623;-67
2022/06/02 05:51:28;;;;;;;15.02;7.10;;;;;;;18.99;100.00;95171.78;5054201;28;20753;-67
2022/06/02 05:54:26;;;;;;;12.02;6.53;;;;;;;18.87;100.00;95158.91;5061383;28;20044;-68
2022/06/02 05:57:33;;;;;;;8.10;5.68;;;;;;;18.78;100.00;95163.97;5059433;28;20055;-68
2022/06/02 06:00:17;;;;;;;9.15;5.70;;;;;;;18.95;100.00;95170.75;5061642;28;20033;-69
2022/06/02 06:03:04;;;;;;;15.80;5.75;;;;;;;19.08;100.00;95164.84;5054190;28;20045;-68
2022/06/02 06:05:42;;;;;;;12.85;7.38;;;;;;;19.20;100.00;95161.84;5063353;28;20068;-68
2022/06/02 06:08:34;;;;;;;13.30;6.45;;;;;;;19.42;100.00;95171.94;5058363;28;20048;-67
2022/06/02 06:11:16;;;;;;;15.55;5.72;;;;;;;19.59;100.00;95169.69;5056732;28;21541;-67
2022/06/02 06:14:11;;;;;;;11.18;6.57;;;;;;;19.74;100.00;95170.63;5057339;28;20055;-67
2022/06/02 06:16:46;;;;;;;;;;;;;;;19.95;99.15;95166.69;5058443;28;20044;-67
2022/06/02 06:19:22;;;;;;;9.35;5.97;;;;;;;19.90;96.65;95173.88;5061224;28;21475;-71
2022/06/02 06:21:55;;;;;;;12.40;6.13;;;;;;;19.90;97.67;95174.69;5039898;28;20076;-71
2022/06/02 06:24:25;;;;;;;9.02;4.45;;;;;;;20.01;96.50;95160.25;5038750;28;20041;-71
2022/06/02 06:26:57;;;;;;;9.02;5.55;;;;;;;20.17;96.44;95162.75;5063666;28;20310;-71
2022/06/02 06:30:01;;;;;;;11.15;5.93;;;;;;;20.26;94.84;95161.03;5060768;28;20048;-68
2022/06/02 06:32:42;;;;;;;12.10;5.40;;;;;;;20.21;95.06;95161.09;5042728;28;20671;-67
2022/06/02 06:35:19;;;;;;;8.80;6.07;;;;;;;20.37;95.29;95167.75;5057818;28;20044;-67
2022/06/02 06:38:27;;;;;;;10.70;5.72;;;;;;;20.49;94.25;95162.06;5061235;28;20033;-69
2022/06/02 06:41:06;;;;;;;11.45;5.80;;;;;;;20.50;94.04;95154.91;5036811;28;20048;-67
2022/06/02 06:44:05;;;;;;;10.02;5.05;;;;;;;20.62;94.26;95157.94;5056002;28;20045;-67
2022/06/02 06:46:53;;;;;;;7.88;5.30;;;;;;;20.77;92.87;95160.38;5058268;28;20033;-67
2022/06/02 06:49:37;;;;;;;8.27;4.53;;;;;;;20.87;89.74;95153.34;5054369;28;20047;-67
2022/06/02 06:52:36;;;;;;;11.13;4.65;;;;;;;21.15;91.53;95160.31;5042703;28;20040;-67
2022/06/02 06:55:18;;;;;;;7.90;5.00;;;;;;;21.38;91.58;95168.44;5017236;28;20048;-69
2022/06/02 06:58:04;;;;;;;12.95;5.20;;;;;;;21.39;90.06;95164.69;5062155;28;20051;-67
2022/06/02 07:00:46;;;;;;;7.30;5.05;;;;;;;21.18;89.11;95165.03;5053107;28;20119;-67
2022/06/02 07:03:15;;;;;;;11.82;5.07;;;;;;;21.43;90.23;95155.09;5059629;28;20433;-67
2022/06/02 07:06:10;;;;;;;10.20;5.53;;;;;;;21.67;89.33;95148.88;5056522;28;20730;-67
2022/06/02 07:08:41;;;;;;;6.97;4.88;;;;;;;21.91;87.10;95170.69;5057420;28;20044;-68
2022/06/02 07:14:33;;;;;;;7.93;5.22;;;;;;;22.29;86.73;95169.72;5060021;28;20701;-66
2022/06/02 07:17:09;;;;;;;8.60;5.00;;;;;;;22.51;86.04;95161.81;5037310;28;20048;-66
2022/06/02 07:19:54;;;;;;;12.77;4.88;;;;;;;22.67;82.90;95159.63;5059343;28;20037;-66
2022/06/02 07:22:35;;;;;;;10.90;5.47;;;;;;;22.44;83.53;95165.97;5057812;28;20430;-69
2022/06/02 07:25:15;;;;;;;13.80;4.90;;;;;;;22.64;84.14;95165.53;5058214;28;20549;-66
2022/06/02 07:28:04;;;;;;;6.80;4.57;;;;;;;22.79;82.79;95166.28;5055586;28;20567;-66
2022/06/02 07:30:52;;;;;;;13.88;5.20;;;;;;;22.87;84.62;95168.22;5061261;28;20500;-69
2022/06/02 07:33:33;;;;;;;8.60;4.80;;;;;;;23.11;83.09;95169.81;5057581;28;20043;-71
2022/06/02 07:36:47;;;;;;;9.77;4.60;;;;;;;23.41;81.59;95171.75;5063450;28;20071;-70
2022/06/02 07:39:20;;;;;;;10.98;4.70;;;;;;;23.70;79.90;95167.81;5058763;28;20071;-71
2022/06/02 07:42:11;;;;;;;6.85;4.05;;;;;;;23.77;78.09;95168.16;5062756;28;20090;-71
2022/06/02 07:45:03;;;;;;;6.00;4.47;;;;;;;23.59;79.02;95166.53;5055458;28;20648;-70
2022/06/02 07:47:42;;;;;;;6.25;4.00;;;;;;;23.65;79.09;95165.28;5063463;28;20044;-72
2022/06/02 07:51:04;;;;;;;5.05;3.75;;;;;;;23.91;79.15;95151.34;5055440;28;20079;-71
2022/06/02 07:53:57;;;;;;;10.02;4.60;;;;;;;24.29;78.67;95166.78;5018096;28;20105;-70
2022/06/02 07:56:42;;;;;;;6.47;3.83;;;;;;;24.38;74.94;95159.59;5059189;28;20843;-70
2022/06/02 07:59:33;;;;;;;7.30;4.07;;;;;;;24.37;73.37;95158.03;5071037;28;20105;-70
2022/06/02 08:02:24;;;;;;;7.68;4.55;;;;;;;24.73;74.50;95154.34;5061620;28;20032;-70
2022/06/02 08:05:19;;;;;;;10.38;4.55;;;;;;;24.91;74.03;95155.91;5054764;28;20071;-70
2022/06/02 08:08:02;;;;;;;12.05;3.80;;;;;;;25.22;73.04;95165.59;5055869;28;20043;-70
2022/06/02 08:11:11;;;;;;;8.40;3.85;;;;;;;25.38;70.34;95166.69;5060642;28;20058;-70
2022/06/02 08:13:56;;;;;;;8.73;3.70;;;;;;;24.99;68.18;95165.81;5035221;28;20051;-70
2022/06/02 08:16:49;;;;;;;8.98;4.38;;;;;;;25.34;70.29;95149.78;5056053;28;20125;-70
2022/06/02 08:19:35;;;;;;;6.72;3.28;;;;;;;25.51;67.88;95161.50;5061572;28;20125;-70
2022/06/02 08:22:06;;;;;;;16.50;4.40;;;;;;;25.61;66.51;95163.84;5059326;28;20036;-70
2022/06/02 08:24:58;;;;;;;9.27;3.30;;;;;;;25.60;65.00;95164.91;5055678;28;20513;-70
2022/06/02 08:27:55;;;;;;;8.15;3.20;;;;;;;25.68;64.96;95161.44;5057391;28;20040;-70
2022/06/02 08:30:34;;;;;;;9.80;3.60;;;;;;;25.97;62.77;95167.97;5008848;28;20039;-70
2022/06/02 08:33:36;;;;;;;6.40;3.60;;;;;;;26.26;62.92;95158.41;5044260;28;20055;-71
2022/06/02 08:36:06;;;;;;;7.53;4.07;;;;;;;26.22;63.23;95165.50;5054763;28;20532;-71
2022/06/02 08:39:03;;;;;;;9.82;3.42;;;;;;;26.12;63.27;95156.72;5044357;28;20044;-70
2022/06/02 08:41:32;;;;;;;7.65;3.40;;;;;;;26.66;62.29;95163.34;5011632;28;20052;-71
2022/06/02 08:44:23;;;;;;;7.32;4.45;;;;;;;27.05;60.75;95155.97;5060237;28;20037;-70
2022/06/02 08:46:55;;;;;;;4.07;3.20;;;;;;;27.29;56.93;95165.22;5059945;28;20048;-70
2022/06/02 08:49:44;;;;;;;4.13;2.85;;;;;;;27.56;55.14;95164.63;5044756;28;20051;-71
2022/06/02 08:52:39;;;;;;;9.27;2.78;;;;;;;27.71;51.98;95152.50;5061861;28;20036;-70
2022/06/02 08:55:49;;;;;;;7.25;3.88;;;;;;;27.64;52.91;95158.41;5080042;28;20044;-70
2022/06/02 08:58:40;;;;;;;7.35;3.50;;;;;;;27.81;50.52;95160.09;5038441;28;20705;-70
2022/06/02 09:01:31;;;;;;;9.60;3.25;;;;;;;27.88;50.88;95164.91;5043964;28;20051;-70
2022/06/02 09:04:19;;;;;;;4.65;2.38;;;;;;;28.06;48.88;95162.03;5059604;28;20099;-70
2022/06/02 09:07:38;;;;;;;4.50;2.58;;;;;;;28.12;49.45;95168.72;5063198;28;20050;-71
2022/06/02 09:10:34;;;;;;;6.15;2.60;;;;;;;28.15;45.15;95173.41;5038708;28;20131;-70
2022/06/02 09:13:48;;;;;;;4.22;2.47;;;;;;;27.78;44.27;95171.44;5057647;28;20955;-70
2022/06/02 09:16:33;;;;;;;7.43;2.88;;;;;;;28.00;44.20;95167.63;5063947;28;20044;-71
2022/06/02 09:19:38;;;;;;;16.30;2.90;;;;;;;28.40;42.98;95164.25;5059367;28;20163;-70
2022/06/02 09:22:12;;;;;;;4.80;2.25;;;;;;;28.87;42.41;95167.53;5062813;28;20063;-70
2022/06/02 09:25:07;;;;;;;3.17;2.20;;;;;;;29.03;40.96;95157.66;5059566;28;20078;-70
2022/06/02 09:28:12;;;;;;;9.35;2.38;;;;;;;29.27;40.08;95166.72;5060486;28;20025;-70
2022/06/02 09:31:06;;;;;;;9.05;2.25;;;;;;;29.61;39.27;95167.22;5055113;28;20051;-71
2022/06/02 09:33:52;;;;;;;4.95;2.53;;;;;;;29.81;37.96;95168.13;5040667;28;20040;-71
2022/06/02 09:36:19;;;;;;;13.90;2.88;;;;;;;30.26;37.55;95164.97;5054970;28;20883;-71
2022/06/02 09:38:59;;;;;;;4.15;1.80;;;;;;;30.80;39.65;95160.03;5058238;28;20055;-71
2022/06/02 09:41:46;;;;;;;5.25;2.30;;;;;;;30.58;35.50;95159.56;5041522;28;20044;-71
2022/06/02 09:44:22;;;;;;;5.35;2.10;;;;;;;30.11;36.42;95155.81;5056919;28;20049;-71
2022/06/02 09:47:00;;;;;;;6.72;2.22;;;;;;;29.78;37.10;95153.50;5055934;28;20123;-71
2022/06/02 09:49:37;;;;;;;7.10;2.50;;;;;;;30.06;37.33;95163.38;5064736;28;20038;-70
2022/06/02 09:52:47;;;;;;;3.13;2.47;;;;;;;30.04;36.53;95154.88;5039195;28;20043;-71
2022/06/02 09:55:36;;;;;;;5.18;2.25;;;;;;;30.36;36.68;95154.84;5040572;28;20044;-71
2022/06/02 09:58:05;;;;;;;3.83;2.00;;;;;;;30.57;37.03;95166.06;5058150;28;20064;-71
2022/06/02 10:01:13;;;;;;;4.53;2.40;;;;;;;30.99;36.23;95164.66;5035270;28;20129;-71
2022/06/02 10:04:03;;;;;;;5.43;2.47;;;;;;;31.59;35.36;95158.88;5052931;28;20126;-71
2022/06/02 10:06:51;;;;;;;4.97;2.60;;;;;;;31.96;34.33;95155.63;5036231;28;20064;-71
2022/06/02 10:09:29;;;;;;;6.22;2.42;;;;;;;32.06;35.96;95144.28;5060419;28;20044;-71
2022/06/02 10:15:13;;;;;;;3.72;2.00;;;;;;;32.84;35.13;95151.91;5059800;28;20047;-71
2022/06/02 10:18:06;;;;;;;3.78;2.33;;;;;;;33.28;32.92;95156.72;5057309;28;20045;-71
2022/06/02 10:20:56;;;;;;;4.85;2.90;;;;;;;33.25;31.88;95162.84;5058140;28;20042;-71
2022/06/02 10:23:55;;;;;;;3.83;2.28;;;;;;;33.56;32.55;95152.72;5054773;28;20950;-71
2022/06/02 10:26:46;;;;;;;3.15;1.92;;;;;;;33.81;31.64;95149.50;5054398;28;20047;-71
2022/06/02 10:29:31;;;;;;;4.13;2.35;;;;;;;33.93;32.85;95146.53;5037053;28;20806;-71
2022/06/02 10:32:21;;;;;;;13.52;2.58;;;;;;;34.17;31.25;95147.09;5044317;28;20048;-71
2022/06/02 10:35:33;;;;;;;8.98;2.58;;;;;;;34.56;30.89;95143.88;5040867;28;20055;-71
2022/06/02 10:38:05;;;;;;;9.63;2.25;;;;;;;34.82;31.59;95140.16;5063822;28;20044;-71
2022/06/02 10:41:00;;;;;;;6.85;2.55;;;;;;;35.24;28.62;95149.63;5055839;28;20586;-72
2022/06/02 10:43:42;;;;;;;5.63;2.72;;;;;;;35.32;30.38;95139.59;5057669;28;20645;-70
2022/06/02 10:46:50;;;;;;;5.03;2.65;;;;;;;35.27;30.14;95145.38;5057916;28;20039;-70
2022/06/02 10:49:32;;;;;;;7.53;2.67;;;;;;;35.69;29.50;95141.16;5059744;28;20538;-70
2022/06/02 10:52:36;;;;;;;4.30;2.65;;;;;;;35.97;27.91;95130.38;5059853;28;20486;-70
2022/06/02 10:55:43;;;;;;;3.90;2.30;;;;;;;35.87;27.23;95125.75;5053209;28;20050;-66
2022/06/02 10:58:22;;;;;;;2.95;2.30;;;;;;;35.45;28.60;95127.22;5058732;28;21367;-67
2022/06/02 11:01:03;;;;;;;6.82;2.20;;;;;;;35.40;28.79;95131.09;5054022;28;20752;-66
2022/06/02 11:03:36;;;;;;;8.38;3.75;;;;;;;34.78;30.65;95123.91;5058012;28;20044;-67
2022/06/02 11:06:32;;;;;;;5.82;2.65;;;;;;;34.46;29.78;95129.91;5058295;28;20117;-68
2022/06/02 11:09:34;;;;;;;5.32;2.25;;;;;;;33.92;30.86;95122.59;5059062;28;20056;-68
2022/06/02 11:12:03;;;;;;;3.70;2.33;;;;;;;33.74;31.73;95117.03;5057583;28;20048;-67
2022/06/02 11:15:06;;;;;;;5.20;2.70;;;;;;;33.95;31.26;95116.44;5061165;28;20052;-67
2022/06/02 11:17:54;;;;;;;3.40;2.28;;;;;;;34.39;30.41;95116.34;5034899;28;20176;-67
2022/06/02 11:20:48;;;;;;;8.15;2.35;;;;;;;34.71;30.28;95117.72;5066036;28;20060;-67
2022/06/02 11:23:33;;;;;;;3.67;2.33;;;;;;;35.13;28.90;95122.50;5057327;28;20068;-67
2022/06/02 11:26:30;;;;;;;3.90;1.98;;;;;;;35.03;28.37;95125.94;5061324;28;20052;-68
2022/06/02 11:29:29;;;;;;;6.30;2.33;;;;;;;35.01;28.15;95120.13;5062261;28;21688;-67
2022/06/02 11:32:17;;;;;;;3.13;2.42;;;;;;;34.24;28.49;95112.03;5058487;28;20554;-69
2022/06/02 11:34:45;;;;;;;12.93;2.22;;;;;;;33.82;30.24;95113.25;5057922;28;20043;-68
2022/06/02 11:37:37;;;;;;;4.93;2.75;;;;;;;33.99;30.40;95118.00;5056674;28;20036;-68
2022/06/02 11:40:28;;;;;;;4.30;2.40;;;;;;;34.19;28.68;95115.06;5056700;28;20123;-66
2022/06/02 11:43:12;;;;;;;6.22;1.95;;;;;;;34.25;29.00;95124.38;5053728;28;20036;-66
2022/06/02 11:46:22;;;;;;;3.97;2.30;;;;;;;34.26;28.54;95115.13;5059151;28;20130;-67
2022/06/02 11:49:26;;;;;;;5.40;2.08;;;;;;;33.86;28.45;95108.66;5056609;28;20521;-70
2022/06/02 11:52:28;;;;;;;3.92;2.03;;;;;;;33.53;29.43;95102.19;5053991;28;20052;-70
2022/06/02 11:55:14;;;;;;;4.13;1.90;;;;;;;33.24;28.66;95101.13;5059110;28;20068;-67
2022/06/02 11:57:58;;;;;;;3.65;2.17;;;;;;;33.57;28.61;95100.28;5055629;28;20032;-67
2022/06/02 12:00:45;;;;;;;7.55;2.28;;;;;;;34.27;27.42;95100.47;5055618;28;20738;-75
2022/06/02 12:03:28;;;;;;;2.72;2.38;;;;;;;34.69;27.03;95096.44;5036593;28;20043;-70
2022/06/02 12:06:13;;;;;;;11.68;2.13;;;;;;;35.60;26.10;95100.91;5055360;28;20699;-70
2022/06/02 12:08:59;;;;;;;6.95;1.45;;;;;;;36.40;24.37;95096.25;5055987;28;20041;-70
2022/06/02 12:11:54;;;;;;;4.18;1.65;;;;;;;37.19;23.30;95090.53;5055255;28;20040;-70
2022/06/02 12:14:32;;;;;;;5.80;1.70;;;;;;;37.91;22.74;95087.31;5039144;28;20036;-70
2022/06/02 12:17:02;;;;;;;1.23;0.90;;;;;;;38.58;21.38;95099.50;5061968;28;20037;-70
2022/06/02 12:20:04;;;;;;;7.35;2.35;;;;;;;38.60;19.29;95096.38;5058847;28;20043;-71
2022/06/02 12:22:47;;;;;;;5.80;1.38;;;;;;;38.68;20.85;95102.50;5022442;28;20775;-70
2022/06/02 12:25:30;;;;;;;1.85;1.25;;;;;;;38.63;20.70;95107.22;5058230;28;20169;-70
2022/06/02 12:28:00;;;;;;;;;;;;;;;37.71;19.57;95109.59;5057498;28;20051;-70
2022/06/02 12:30:51;;;;;;;6.78;1.40;;;;;;;36.59;20.55;95103.16;5051656;28;20020;-70
2022/06/02 12:33:54;;;;;;;3.42;1.25;;;;;;;35.89;22.11;95096.31;5057034;28;20905;-70
2022/06/02 12:36:21;;;;;;;3.60;1.50;;;;;;;36.15;23.28;95091.63;5054743;28;20052;-69
2022/06/02 12:39:09;;;;;;;4.78;1.25;;;;;;;36.18;22.87;95088.16;5037946;28;20123;-70
2022/06/02 12:42:13;;;;;;;2.78;1.35;;;;;;;35.35;23.88;95090.09;5055002;28;20125;-70
2022/06/02 12:45:09;;;;;;;2.10;1.30;;;;;;;34.62;23.54;95093.69;5058671;28;20138;-70
2022/06/02 12:48:18;;;;;;;2.67;1.25;;;;;;;34.35;24.25;95096.63;5003281;28;20474;-69
2022/06/02 12:51:06;;;;;;;2.47;1.23;;;;;;;34.61;24.24;95092.13;5063427;28;20513;-69
2022/06/02 12:53:54;;;;;;;5.60;1.80;;;;;;;35.64;23.80;95090.09;5058095;28;20044;-70
2022/06/02 12:56:39;;;;;;;5.60;1.65;;;;;;;35.97;23.07;95092.41;5059527;28;20037;-69
2022/06/02 12:59:12;;;;;;;3.53;1.58;;;;;;;36.32;22.88;95096.28;5058349;28;20059;-69
2022/06/02 13:02:02;;;;;;;5.95;1.40;;;;;;;36.20;24.46;95090.50;5052802;28;20032;-69
2022/06/02 13:04:31;;;;;;;4.15;1.10;;;;;;;36.39;22.80;95090.03;5040242;28;20102;-69
2022/06/02 13:07:01;;;;;;;6.97;1.23;;;;;;;36.51;22.78;95091.56;5053977;28;20587;-70
2022/06/02 13:10:05;;;;;;;2.33;1.27;;;;;;;37.04;23.05;95090.59;5059657;28;20041;-70
2022/06/02 13:12:48;;;;;;;2.95;1.70;;;;;;;36.79;22.03;95079.06;5054546;28;20736;-70